Time;durP1;ratioP1;P1;durP2;ratioP2;P2;SDS_P1;SDS_P2;PMS_P1;PMS_P2;Temp;Humidity;BMP_temperature;BMP_pressure;BME280_temperature;BME280_humidity;BME280_pressure;Samples;Min_cycle;Max_cycle;Signal;HPM_P1;HPM_P2
2022/08/04 00:02:02;;;;;;;10.10;9.10;;;;;;;17.86;74.40;100419.78;129924;1268;393368;-69
2022/08/04 00:05:12;;;;;;;9.90;8.90;;;;;;;17.86;74.40;100422.61;130200;1268;107169;-70
2022/08/04 00:08:32;;;;;;;10.80;9.80;;;;;;;17.84;74.44;100422.90;130185;1268;109337;-69
2022/08/04 00:11:44;;;;;;;9.70;8.20;;;;;;;17.81;74.50;100428.09;130180;1267;110279;-70
2022/08/04 00:14:53;;;;;;;8.40;7.60;;;;;;;17.76;74.52;100431.31;130160;1268;109599;-69
2022/08/04 00:18:03;;;;;;;9.70;8.70;;;;;;;17.73;74.47;100434.23;130161;1268;108194;-69
2022/08/04 00:21:12;;;;;;;9.50;8.50;;;;;;;17.72;74.64;100433.30;130216;1268;108674;-70
2022/08/04 00:24:18;;;;;;;9.60;8.60;;;;;;;17.71;74.56;100432.92;130193;1268;109774;-69
2022/08/04 00:27:23;;;;;;;9.50;8.50;;;;;;;17.68;74.63;100435.39;130202;1268;109032;-69
2022/08/04 00:30:29;;;;;;;10.40;9.40;;;;;;;17.64;74.68;100436.69;130211;1267;107720;-70
2022/08/04 00:33:36;;;;;;;10.10;9.20;;;;;;;17.61;74.76;100435.33;130066;1268;108826;-69
2022/08/04 00:36:43;;;;;;;9.40;8.10;;;;;;;17.59;74.70;100433.20;130123;1268;108972;-69
2022/08/04 00:39:48;;;;;;;8.80;8.00;;;;;;;17.57;74.81;100436.59;130212;1268;107156;-69
2022/08/04 00:43:06;;;;;;;9.40;8.40;;;;;;;17.57;74.78;100437.79;130222;1268;108754;-69
2022/08/04 00:46:31;;;;;;;9.60;8.40;;;;;;;17.58;74.77;100434.27;130201;1267;108670;-69
2022/08/04 00:50:00;;;;;;;9.80;8.90;;;;;;;17.55;74.83;100435.19;130179;1267;109103;-70
2022/08/04 00:53:19;;;;;;;9.20;8.30;;;;;;;17.51;74.94;100434.13;130225;1267;109376;-70
2022/08/04 00:56:53;;;;;;;9.60;8.20;;;;;;;17.47;75.04;100442.85;130262;1267;108629;-70
2022/08/04 01:00:07;;;;;;;7.90;7.20;;;;;;;17.43;75.16;100441.32;130156;1268;109328;-70
2022/08/04 01:03:24;;;;;;;8.40;7.30;;;;;;;17.41;75.03;100444.13;130250;1268;108954;-71
2022/08/04 01:06:37;;;;;;;8.90;8.10;;;;;;;17.39;75.14;100446.84;130249;1267;109025;-70
2022/08/04 01:09:55;;;;;;;8.60;7.80;;;;;;;17.38;75.15;100443.92;130223;1267;108865;-70
2022/08/04 01:13:26;;;;;;;9.30;8.40;;;;;;;17.37;75.18;100443.24;130206;1267;106947;-70
2022/08/04 01:16:35;;;;;;;9.30;8.40;;;;;;;17.35;75.20;100448.25;130181;1267;108382;-70
2022/08/04 01:20:02;;;;;;;9.80;8.90;;;;;;;17.31;75.21;100447.55;130247;1267;108786;-70
2022/08/04 01:23:55;;;;;;;8.40;7.40;;;;;;;17.24;75.23;100447.70;130268;1268;108896;-70
2022/08/04 01:27:04;;;;;;;7.70;7.00;;;;;;;17.15;75.37;100449.66;129789;1273;108933;-70
2022/08/04 01:30:09;;;;;;;8.20;7.40;;;;;;;17.13;75.34;100448.45;129784;1271;108757;-68
2022/08/04 01:33:17;;;;;;;9.20;8.30;;;;;;;17.14;75.43;100452.69;130087;1268;109390;-71
2022/08/04 01:36:24;;;;;;;8.60;7.80;;;;;;;17.14;75.35;100450.40;130231;1267;108737;-70
2022/08/04 01:39:41;;;;;;;9.30;8.50;;;;;;;17.12;75.38;100450.81;130245;1267;108090;-70
2022/08/04 01:42:49;;;;;;;9.80;8.20;;;;;;;17.09;75.34;100451.39;130262;1267;108738;-70
2022/08/04 01:46:00;;;;;;;10.80;9.40;;;;;;;17.04;75.44;100453.04;130187;1267;108797;-68
2022/08/04 01:49:07;;;;;;;7.90;7.10;;;;;;;16.97;75.55;100454.50;130201;1268;108716;-70
2022/08/04 01:52:15;;;;;;;8.00;7.30;;;;;;;16.92;75.70;100452.17;130242;1267;107634;-72
2022/08/04 01:55:20;;;;;;;8.40;7.50;;;;;;;16.92;75.73;100453.61;130273;1267;107287;-70
2022/08/04 01:58:28;;;;;;;8.70;7.90;;;;;;;16.94;75.70;100450.86;130301;1267;108737;-70
2022/08/04 02:01:37;;;;;;;8.60;7.70;;;;;;;16.94;75.74;100449.65;130225;1268;108603;-71
2022/08/04 02:04:43;;;;;;;8.60;7.80;;;;;;;16.93;75.71;100451.95;130235;1268;108779;-70
2022/08/04 02:08:01;;;;;;;8.70;7.90;;;;;;;16.92;75.64;100452.10;130182;1267;108714;-70
2022/08/04 02:11:14;;;;;;;9.10;7.80;;;;;;;16.88;75.68;100452.55;130228;1267;108124;-68
2022/08/04 02:14:40;;;;;;;7.80;7.10;;;;;;;16.81;75.76;100453.17;130255;1267;111715;-69
2022/08/04 02:17:56;;;;;;;7.40;6.70;;;;;;;16.78;75.83;100452.33;130186;1267;108846;-70
2022/08/04 02:21:03;;;;;;;7.90;7.10;;;;;;;16.76;75.83;100449.62;130013;1267;108985;-70
2022/08/04 02:24:14;;;;;;;9.20;8.00;;;;;;;16.77;75.88;100445.70;130268;1267;108812;-70
2022/08/04 02:27:25;;;;;;;9.60;7.90;;;;;;;16.76;75.83;100440.79;130241;1268;108971;-70
2022/08/04 02:30:40;;;;;;;8.80;7.90;;;;;;;16.76;75.91;100443.56;130240;1265;109503;-70
2022/08/04 02:33:51;;;;;;;9.70;8.70;;;;;;;16.72;76.01;100442.20;130234;1268;107025;-69
2022/08/04 02:36:59;;;;;;;8.70;7.50;;;;;;;16.66;76.06;100442.04;130100;1268;108741;-70
2022/08/04 02:40:07;;;;;;;8.00;7.30;;;;;;;16.63;76.19;100443.20;130074;1267;109378;-70
2022/08/04 02:43:15;;;;;;;7.20;6.50;;;;;;;16.60;75.99;100440.63;130238;1267;108825;-70
2022/08/04 02:46:22;;;;;;;7.90;7.00;;;;;;;16.59;76.04;100436.80;130213;1267;108766;-69
2022/08/04 02:49:29;;;;;;;7.90;7.10;;;;;;;16.59;76.10;100435.19;130274;1267;108945;-69
2022/08/04 02:52:35;;;;;;;9.70;7.70;;;;;;;16.59;76.16;100440.59;130243;1268;107943;-69
2022/08/04 02:55:42;;;;;;;8.20;7.50;;;;;;;16.59;76.19;100437.91;130249;1267;108895;-69
2022/08/04 02:58:51;;;;;;;9.70;8.70;;;;;;;16.57;76.17;100443.84;130257;1267;109094;-69
2022/08/04 03:01:58;;;;;;;9.50;7.60;;;;;;;16.53;76.29;100444.10;130220;1267;109431;-69
2022/08/04 03:05:13;;;;;;;8.90;6.40;;;;;;;16.47;76.28;100441.71;130073;1268;108655;-69
2022/08/04 03:08:44;;;;;;;10.20;7.50;;;;;;;16.45;76.26;100442.93;130320;1267;108562;-69
2022/08/04 03:12:08;;;;;;;7.80;6.80;;;;;;;16.44;76.38;100445.68;130299;1267;109298;-69
2022/08/04 03:15:47;;;;;;;8.20;7.30;;;;;;;16.45;76.33;100448.02;130260;1267;107615;-68
2022/08/04 03:19:17;;;;;;;9.20;8.20;;;;;;;16.45;76.43;100449.88;130215;1267;109603;-69
2022/08/04 03:22:57;;;;;;;9.00;8.20;;;;;;;16.42;76.47;100455.86;130260;1267;109613;-71
2022/08/04 03:26:22;;;;;;;7.40;6.70;;;;;;;16.39;76.52;100456.81;130276;1267;107823;-69
2022/08/04 03:29:54;;;;;;;6.80;6.20;;;;;;;16.38;76.55;100452.88;130363;1267;108838;-71
2022/08/04 03:33:51;;;;;;;7.60;6.90;;;;;;;16.43;76.63;100453.83;130390;1267;107671;-71
2022/08/04 03:37:19;;;;;;;8.30;7.00;;;;;;;16.50;76.71;100452.23;130335;1267;108705;-71
2022/08/04 03:40:34;;;;;;;8.50;7.70;;;;;;;16.57;76.64;100453.23;130360;1267;109834;-70
2022/08/04 03:44:18;;;;;;;8.40;7.60;;;;;;;16.64;76.71;100450.78;130343;1268;107669;-68
2022/08/04 03:48:00;;;;;;;8.10;7.40;;;;;;;16.68;76.62;100453.08;130324;1268;109039;-70
2022/08/04 03:55:10;;;;;;;7.70;7.00;;;;;;;16.76;76.81;100453.23;130268;1267;110142;-70
2022/08/04 03:58:48;;;;;;;7.70;7.00;;;;;;;16.91;76.82;100453.56;130330;1268;106881;-70
2022/08/04 04:02:14;;;;;;;9.30;7.80;;;;;;;17.09;76.82;100456.54;130360;1267;109311;-70
2022/08/04 04:06:04;;;;;;;8.70;7.80;;;;;;;17.28;76.86;100455.83;130330;1268;109328;-71
2022/08/04 04:09:42;;;;;;;8.30;7.20;;;;;;;17.49;76.88;100459.88;130106;1267;108685;-70
2022/08/04 04:13:09;;;;;;;7.10;6.40;;;;;;;17.73;76.96;100460.80;130323;1268;108654;-70
2022/08/04 04:16:37;;;;;;;7.90;7.20;;;;;;;17.96;76.58;100459.98;130358;1268;108497;-70
2022/08/04 04:20:07;;;;;;;8.20;7.40;;;;;;;18.22;76.65;100464.13;130381;1268;108698;-70
2022/08/04 04:23:30;;;;;;;8.40;7.60;;;;;;;18.47;76.62;100466.27;130416;1268;109815;-69
2022/08/04 04:27:00;;;;;;;8.10;7.30;;;;;;;18.70;76.48;100468.80;130354;1267;107463;-70
2022/08/04 04:30:12;;;;;;;8.40;7.60;;;;;;;18.92;76.42;100469.05;130343;1267;108423;-70
2022/08/04 04:33:37;;;;;;;9.10;7.30;;;;;;;19.08;76.40;100466.23;130094;1268;108608;-69
2022/08/04 04:36:56;;;;;;;8.40;7.50;;;;;;;19.30;76.65;100464.89;130336;1267;109336;-69
2022/08/04 04:40:15;;;;;;;8.90;8.10;;;;;;;19.53;76.64;100464.30;130402;1268;109235;-69
2022/08/04 04:43:42;;;;;;;9.30;8.50;;;;;;;19.78;76.69;100468.09;130349;1268;107643;-70
2022/08/04 04:46:57;;;;;;;11.30;10.10;;;;;;;20.03;76.73;100469.74;130320;1268;107277;-71
2022/08/04 04:50:09;;;;;;;11.00;9.90;;;;;;;20.22;76.69;100470.60;130362;1268;108549;-69
2022/08/04 04:53:23;;;;;;;11.80;10.60;;;;;;;20.42;76.75;100470.58;130416;1268;108985;-69
2022/08/04 04:56:36;;;;;;;11.30;10.10;;;;;;;20.57;76.59;100472.19;130278;1268;108502;-69
2022/08/04 04:59:49;;;;;;;10.00;9.00;;;;;;;20.74;76.70;100469.77;130234;1267;108744;-69
2022/08/04 05:03:21;;;;;;;11.20;9.60;;;;;;;20.96;76.59;100473.76;130281;1268;109195;-69
2022/08/04 05:06:46;;;;;;;10.90;9.80;;;;;;;21.17;76.39;100475.94;130255;1267;109414;-69
2022/08/04 05:10:07;;;;;;;11.00;9.90;;;;;;;21.36;76.40;100478.74;130235;1267;108748;-69
2022/08/04 05:13:34;;;;;;;10.60;9.50;;;;;;;21.54;76.28;100471.88;130290;1267;107873;-69
2022/08/04 05:16:46;;;;;;;11.30;10.10;;;;;;;21.73;75.99;100472.79;130257;1268;108774;-69
2022/08/04 05:19:59;;;;;;;10.70;9.60;;;;;;;21.86;75.86;100474.02;130277;1267;108726;-69
2022/08/04 05:23:09;;;;;;;11.00;9.00;;;;;;;21.98;75.97;100470.56;130134;1268;108900;-70
2022/08/04 05:26:18;;;;;;;9.30;8.40;;;;;;;22.11;75.73;100468.52;130015;1270;109645;-70
2022/08/04 05:29:29;;;;;;;9.20;8.40;;;;;;;22.25;75.57;100471.20;130215;1267;108714;-70
2022/08/04 05:32:43;;;;;;;10.00;9.00;;;;;;;22.43;75.60;100469.18;130229;1268;107079;-69
2022/08/04 05:35:54;;;;;;;9.80;8.90;;;;;;;22.60;75.46;100471.27;130215;1267;108767;-69
2022/08/04 05:39:04;;;;;;;10.20;9.30;;;;;;;22.71;75.32;100469.31;130250;1267;107249;-69
2022/08/04 05:42:11;;;;;;;10.10;9.00;;;;;;;22.82;75.04;100467.60;130249;1268;108611;-69
2022/08/04 05:45:17;;;;;;;9.80;8.80;;;;;;;22.89;74.84;100473.45;130241;1268;106965;-70
2022/08/04 05:48:24;;;;;;;9.50;8.50;;;;;;;22.96;75.04;100473.65;130253;1267;108854;-70
2022/08/04 05:51:30;;;;;;;9.20;8.20;;;;;;;23.03;75.09;100474.36;130304;1267;108565;-70
2022/08/04 05:54:37;;;;;;;8.60;7.80;;;;;;;23.09;74.68;100471.52;130112;1268;108808;-70
2022/08/04 05:57:44;;;;;;;8.70;7.80;;;;;;;23.14;74.69;100477.61;130236;1268;109676;-70
2022/08/04 06:00:52;;;;;;;8.80;8.00;;;;;;;23.23;74.61;100480.35;130281;1267;108712;-70
2022/08/04 06:03:59;;;;;;;8.70;7.90;;;;;;;23.30;74.32;100477.11;130297;1268;108920;-70
2022/08/04 06:07:06;;;;;;;9.50;8.30;;;;;;;23.35;74.38;100477.99;130274;1268;110287;-69
2022/08/04 06:10:12;;;;;;;8.50;7.70;;;;;;;23.37;73.90;100478.60;130256;1268;108688;-69
2022/08/04 06:13:25;;;;;;;8.20;7.40;;;;;;;23.37;74.20;100483.79;130222;1268;108966;-70
2022/08/04 06:16:38;;;;;;;8.50;7.40;;;;;;;23.42;74.09;100486.40;130100;1268;109579;-69
2022/08/04 06:19:45;;;;;;;8.00;7.10;;;;;;;23.44;73.75;100482.21;130106;1270;108659;-70
2022/08/04 06:22:55;;;;;;;8.90;8.00;;;;;;;23.48;73.39;100482.70;130232;1267;109362;-71
2022/08/04 06:26:02;;;;;;;8.40;7.50;;;;;;;23.51;73.47;100479.09;130247;1267;108148;-71
2022/08/04 06:29:16;;;;;;;8.50;7.70;;;;;;;23.55;73.26;100481.18;130256;1268;108732;-71
2022/08/04 06:32:27;;;;;;;8.50;7.60;;;;;;;23.56;72.87;100485.92;130350;1267;107458;-71
2022/08/04 06:35:33;;;;;;;8.90;8.10;;;;;;;23.57;73.12;100483.14;130271;1267;108436;-71
2022/08/04 06:38:39;;;;;;;8.20;7.10;;;;;;;23.58;73.11;100484.48;130305;1267;108645;-71
2022/08/04 06:41:45;;;;;;;9.50;6.30;;;;;;;23.60;73.01;100486.66;130324;1268;108870;-71
2022/08/04 06:44:55;;;;;;;7.20;6.50;;;;;;;23.67;72.82;100489.05;130251;1268;108932;-71
2022/08/04 06:48:02;;;;;;;7.40;6.70;;;;;;;23.78;72.68;100485.67;130213;1268;107162;-71
2022/08/04 06:51:08;;;;;;;7.70;6.90;;;;;;;23.88;72.22;100486.98;130258;1267;110474;-71
2022/08/04 06:54:14;;;;;;;7.50;6.80;;;;;;;23.96;72.19;100488.33;130248;1268;107355;-71
2022/08/04 06:57:21;;;;;;;7.90;7.10;;;;;;;24.04;71.98;100490.41;130209;1267;109739;-71
2022/08/04 07:00:28;;;;;;;7.80;6.60;;;;;;;24.08;71.69;100492.21;130263;1268;108659;-69
2022/08/04 07:03:33;;;;;;;7.40;6.70;;;;;;;24.15;71.74;100491.98;130227;1268;109037;-69
2022/08/04 07:06:39;;;;;;;7.20;6.60;;;;;;;24.22;71.34;100489.75;130139;1267;110354;-69
2022/08/04 07:09:44;;;;;;;7.40;6.80;;;;;;;24.26;71.13;100486.75;130252;1267;107523;-69
2022/08/04 07:12:51;;;;;;;11.60;6.90;;;;;;;24.30;71.06;100483.83;130239;1267;108558;-69
2022/08/04 07:15:58;;;;;;;7.50;6.60;;;;;;;24.35;70.97;100483.44;130229;1267;108755;-69
2022/08/04 07:19:03;;;;;;;7.70;6.90;;;;;;;24.40;70.84;100486.77;130258;1268;109656;-70
2022/08/04 07:22:10;;;;;;;9.50;6.90;;;;;;;24.45;70.70;100482.70;130270;1268;107663;-70
2022/08/04 07:25:16;;;;;;;7.00;6.20;;;;;;;24.51;70.37;100483.11;130288;1267;108444;-71
2022/08/04 07:28:23;;;;;;;6.80;6.10;;;;;;;24.58;70.27;100485.66;130092;1268;108811;-71
2022/08/04 07:31:30;;;;;;;6.50;5.80;;;;;;;24.63;69.90;100487.40;130259;1267;107514;-71
2022/08/04 07:34:37;;;;;;;6.30;5.50;;;;;;;24.68;69.45;100490.29;130297;1268;108895;-70
2022/08/04 07:37:42;;;;;;;5.80;5.30;;;;;;;24.73;69.20;100488.05;130322;1267;108823;-70
2022/08/04 07:40:48;;;;;;;6.20;5.60;;;;;;;24.79;68.87;100486.77;130256;1267;108610;-70
2022/08/04 07:43:55;;;;;;;6.10;5.50;;;;;;;24.88;68.76;100486.11;130249;1267;108672;-70
2022/08/04 07:47:01;;;;;;;5.70;5.20;;;;;;;24.93;68.82;100484.48;130190;1268;108914;-70
2022/08/04 07:50:09;;;;;;;5.80;5.30;;;;;;;25.00;68.31;100486.25;130259;1268;108590;-70
2022/08/04 07:53:16;;;;;;;5.50;5.00;;;;;;;25.06;67.86;100486.85;130248;1267;108598;-70
2022/08/04 07:56:21;;;;;;;5.10;4.70;;;;;;;25.14;67.26;100486.01;130343;1267;108779;-70
2022/08/04 07:59:26;;;;;;;6.20;4.70;;;;;;;25.20;67.28;100487.71;130214;1267;109166;-70
2022/08/04 08:02:33;;;;;;;5.50;4.90;;;;;;;25.27;66.83;100486.46;130220;1267;108637;-71
2022/08/04 08:05:40;;;;;;;5.30;4.80;;;;;;;25.37;66.92;100486.41;130248;1268;108091;-70
2022/08/04 08:08:46;;;;;;;5.10;4.70;;;;;;;25.43;66.84;100483.53;130258;1267;108814;-70
2022/08/04 08:11:53;;;;;;;5.10;4.70;;;;;;;25.48;66.44;100482.77;130276;1268;108762;-70
2022/08/04 08:14:59;;;;;;;4.90;4.50;;;;;;;25.53;65.54;100482.11;130204;1268;108496;-70
2022/08/04 08:18:05;;;;;;;4.70;4.20;;;;;;;25.58;65.47;100482.30;130239;1268;108763;-70
2022/08/04 08:21:11;;;;;;;5.20;4.70;;;;;;;25.64;64.89;100476.39;130156;1268;109109;-70
2022/08/04 08:24:17;;;;;;;5.00;4.60;;;;;;;25.70;64.73;100476.10;130196;1268;109158;-70
2022/08/04 08:27:23;;;;;;;5.30;4.70;;;;;;;25.75;64.48;100478.38;130287;1267;108875;-70
2022/08/04 08:30:28;;;;;;;5.30;4.80;;;;;;;25.83;64.32;100474.73;130170;1268;108912;-70
2022/08/04 08:33:34;;;;;;;5.00;4.50;;;;;;;25.88;64.14;100476.39;130010;1268;107125;-71
2022/08/04 08:36:43;;;;;;;4.80;4.40;;;;;;;25.95;64.30;100474.46;130276;1268;108546;-70
2022/08/04 08:39:57;;;;;;;5.00;4.60;;;;;;;26.00;63.61;100478.63;130243;1267;109663;-69
2022/08/04 08:43:20;;;;;;;5.80;5.00;;;;;;;26.04;63.15;100477.44;130223;1268;108761;-70
2022/08/04 08:46:57;;;;;;;5.40;4.90;;;;;;;26.12;63.25;100477.98;130274;1268;107962;-70
2022/08/04 08:50:27;;;;;;;6.10;4.90;;;;;;;26.21;62.84;100480.10;130241;1268;107656;-70
2022/08/04 08:53:52;;;;;;;7.60;4.90;;;;;;;26.29;62.46;100485.40;130174;1268;108495;-70
2022/08/04 08:57:08;;;;;;;5.20;4.60;;;;;;;26.36;62.30;100479.70;130274;1268;108634;-70
2022/08/04 09:00:20;;;;;;;5.30;4.50;;;;;;;26.45;61.76;100478.29;130273;1268;108899;-70
2022/08/04 09:03:45;;;;;;;4.90;4.50;;;;;;;26.57;61.73;100482.83;130252;1268;108876;-70
2022/08/04 09:07:02;;;;;;;5.50;4.60;;;;;;;26.67;61.25;100483.09;130248;1268;109564;-70
2022/08/04 09:10:20;;;;;;;5.00;4.50;;;;;;;26.69;60.87;100483.61;130235;1268;108369;-71
2022/08/04 09:13:33;;;;;;;4.90;4.50;;;;;;;26.64;60.78;100484.54;130243;1267;108734;-70
2022/08/04 09:16:45;;;;;;;5.40;4.60;;;;;;;26.68;60.87;100483.38;130241;1268;109595;-71
2022/08/04 09:19:57;;;;;;;4.80;4.40;;;;;;;26.70;60.27;100480.67;130301;1268;108814;-70
2022/08/04 09:23:13;;;;;;;5.10;4.70;;;;;;;26.77;60.39;100478.06;130218;1268;107236;-70
2022/08/04 09:26:27;;;;;;;5.00;4.50;;;;;;;26.91;59.87;100480.64;130243;1268;108716;-70
2022/08/04 09:29:46;;;;;;;6.30;4.30;;;;;;;27.05;59.38;100480.09;130217;1268;109395;-71
2022/08/04 09:33:06;;;;;;;5.60;5.10;;;;;;;27.17;58.87;100471.00;130224;1268;109320;-70
2022/08/04 09:36:25;;;;;;;4.50;4.10;;;;;;;27.29;59.35;100478.01;130268;1268;108021;-71
2022/08/04 09:39:34;;;;;;;5.00;4.50;;;;;;;27.37;58.82;100481.88;130286;1268;108087;-70
2022/08/04 09:42:55;;;;;;;4.90;4.50;;;;;;;27.36;58.82;100477.82;130222;1268;109823;-70
2022/08/04 09:46:06;;;;;;;4.50;3.80;;;;;;;27.46;58.08;100477.68;130265;1268;108702;-70
2022/08/04 09:49:17;;;;;;;4.30;3.90;;;;;;;27.54;58.14;100478.19;130150;1268;108629;-70
2022/08/04 09:52:32;;;;;;;3.90;3.60;;;;;;;27.61;57.31;100478.20;130182;1268;108724;-70
2022/08/04 09:55:48;;;;;;;3.90;3.60;;;;;;;27.67;57.06;100475.07;130137;1268;109473;-70
2022/08/04 09:59:05;;;;;;;6.90;4.10;;;;;;;27.66;56.37;100474.52;130186;1268;109428;-70
2022/08/04 10:02:15;;;;;;;5.00;3.80;;;;;;;27.65;56.06;100472.91;130360;1268;108850;-70
2022/08/04 10:05:25;;;;;;;4.00;3.50;;;;;;;27.65;56.15;100473.62;130199;1268;109447;-70
2022/08/04 10:08:54;;;;;;;4.40;3.50;;;;;;;27.63;55.73;100468.40;130305;1268;108958;-70
2022/08/04 10:12:16;;;;;;;3.60;3.40;;;;;;;27.64;55.70;100471.48;130058;1267;108711;-70
2022/08/04 10:15:28;;;;;;;3.80;3.50;;;;;;;27.65;55.46;100472.86;130107;1268;109034;-70
2022/08/04 10:18:50;;;;;;;4.00;3.70;;;;;;;27.68;55.93;100470.36;130130;1268;109569;-70
2022/08/04 10:22:11;;;;;;;4.00;3.40;;;;;;;27.76;55.72;100467.67;130302;1268;109178;-70
2022/08/04 10:25:30;;;;;;;3.70;3.40;;;;;;;27.83;54.94;100466.52;130236;1268;107646;-71
2022/08/04 10:28:43;;;;;;;4.10;3.70;;;;;;;27.87;54.91;100465.02;130248;1268;109086;-71
2022/08/04 10:31:59;;;;;;;4.00;3.60;;;;;;;27.89;54.64;100462.20;130273;1268;108770;-70
2022/08/04 10:35:15;;;;;;;3.80;3.30;;;;;;;27.88;54.58;100458.02;130197;1268;108833;-70
2022/08/04 10:38:31;;;;;;;4.70;4.10;;;;;;;27.86;54.60;100458.54;130192;1268;108824;-70
2022/08/04 10:41:49;;;;;;;3.60;3.30;;;;;;;27.74;54.49;100453.14;130183;1268;109206;-71
2022/08/04 10:45:11;;;;;;;4.20;3.80;;;;;;;27.72;54.52;100453.34;130224;1268;109059;-70
2022/08/04 10:48:27;;;;;;;3.70;3.40;;;;;;;27.82;54.15;100451.48;130180;1268;108831;-70
2022/08/04 10:51:44;;;;;;;3.50;3.20;;;;;;;27.86;53.72;100451.02;130214;1268;110456;-70
2022/08/04 10:54:57;;;;;;;3.60;3.30;;;;;;;27.88;53.43;100450.16;130213;1268;107506;-70
2022/08/04 10:58:05;;;;;;;4.00;3.30;;;;;;;27.85;53.46;100445.98;130247;1268;109412;-70
2022/08/04 11:01:17;;;;;;;3.80;3.50;;;;;;;27.88;53.39;100439.15;130230;1268;109202;-71
2022/08/04 11:04:41;;;;;;;3.60;3.30;;;;;;;27.90;53.14;100441.76;130214;1268;108855;-70
2022/08/04 11:07:54;;;;;;;3.50;3.20;;;;;;;27.93;53.30;100438.55;130184;1268;108670;-70
2022/08/04 11:11:05;;;;;;;3.60;3.20;;;;;;;27.95;53.18;100439.05;130161;1268;108147;-70
2022/08/04 11:14:11;;;;;;;;;;;;;;;27.99;52.99;100439.46;130180;1268;108321;-70
2022/08/04 11:17:22;;;;;;;3.80;3.40;;;;;;;27.98;52.23;100436.44;130160;1268;108391;-70
2022/08/04 11:20:36;;;;;;;3.80;3.40;;;;;;;27.97;52.31;100437.48;130234;1268;108162;-70
2022/08/04 11:23:47;;;;;;;3.80;3.50;;;;;;;27.97;52.33;100434.08;130172;1268;110574;-70
2022/08/04 11:26:58;;;;;;;4.00;3.70;;;;;;;27.99;52.42;100430.85;130230;1268;108844;-70
2022/08/04 11:30:07;;;;;;;3.90;3.60;;;;;;;27.99;51.70;100429.04;130201;1268;107067;-70
2022/08/04 11:33:21;;;;;;;3.90;3.60;;;;;;;27.97;51.54;100437.53;130223;1268;109981;-70
2022/08/04 11:36:34;;;;;;;4.30;3.60;;;;;;;27.93;51.10;100436.73;130154;1268;110617;-70
2022/08/04 11:39:48;;;;;;;4.00;3.60;;;;;;;27.90;51.03;100432.01;130221;1268;108838;-70
2022/08/04 11:43:01;;;;;;;3.90;3.60;;;;;;;27.89;50.95;100433.42;130152;1268;108171;-71
2022/08/04 11:46:21;;;;;;;3.80;3.50;;;;;;;27.87;50.35;100427.90;130215;1268;109131;-70
2022/08/04 11:49:35;;;;;;;3.80;3.50;;;;;;;27.85;50.72;100435.06;130173;1268;108854;-70
2022/08/04 11:52:44;;;;;;;5.00;3.20;;;;;;;27.84;50.25;100434.02;130236;1268;108125;-70
2022/08/04 11:55:52;;;;;;;3.80;3.50;;;;;;;27.79;49.86;100429.88;130274;1268;108830;-70
2022/08/04 11:59:00;;;;;;;4.30;3.90;;;;;;;27.78;49.99;100429.80;130230;1268;109567;-70
2022/08/04 12:02:29;;;;;;;3.80;3.40;;;;;;;27.80;50.14;100426.96;129230;1268;1320720;-70
2022/08/04 12:05:43;;;;;;;4.40;3.60;;;;;;;27.82;49.95;100424.23;130056;1268;108769;-71
2022/08/04 12:09:11;;;;;;;3.80;3.50;;;;;;;27.86;49.91;100423.71;129879;1267;108772;-71
2022/08/04 12:12:24;;;;;;;3.80;3.50;;;;;;;27.90;49.76;100420.73;130214;1268;108779;-71
2022/08/04 12:15:36;;;;;;;3.90;3.60;;;;;;;27.88;49.20;100419.36;130249;1268;108939;-71
2022/08/04 12:18:43;;;;;;;;;;;;;;;27.86;48.84;100418.83;130270;1268;108669;-71
2022/08/04 12:21:53;;;;;;;3.80;3.50;;;;;;;27.83;48.84;100416.35;130264;1268;109653;-71
2022/08/04 12:25:03;;;;;;;4.10;3.60;;;;;;;27.86;48.62;100417.14;130090;1268;108879;-71
2022/08/04 12:28:16;;;;;;;3.20;3.00;;;;;;;27.87;48.57;100410.59;130191;1268;108317;-71
2022/08/04 12:31:29;;;;;;;3.50;3.20;;;;;;;27.89;48.48;100412.57;130212;1268;108223;-71
2022/08/04 12:34:40;;;;;;;4.80;3.20;;;;;;;27.89;48.38;100413.94;130278;1268;108731;-71
2022/08/04 12:37:58;;;;;;;3.50;3.20;;;;;;;27.91;48.48;100408.10;130214;1267;108676;-71
2022/08/04 12:41:04;;;;;;;3.60;3.30;;;;;;;27.95;48.77;100404.55;130213;1268;108903;-70
2022/08/04 12:44:13;;;;;;;4.60;3.30;;;;;;;27.97;48.58;100400.02;130109;1268;108864;-71
2022/08/04 12:47:24;;;;;;;3.80;3.30;;;;;;;27.95;48.23;100397.96;130102;1267;109066;-71
2022/08/04 12:50:31;;;;;;;3.70;3.40;;;;;;;27.93;48.21;100397.25;130221;1268;108610;-70
2022/08/04 12:53:41;;;;;;;4.00;3.60;;;;;;;27.95;48.45;100395.06;130215;1268;109650;-70
2022/08/04 12:56:48;;;;;;;4.10;3.10;;;;;;;27.99;48.54;100391.36;130245;1268;108903;-70
2022/08/04 12:59:53;;;;;;;3.10;2.90;;;;;;;28.02;48.18;100386.48;130233;1268;108973;-70
2022/08/04 13:03:06;;;;;;;3.20;2.90;;;;;;;28.03;47.93;100386.77;130161;1268;108796;-69
2022/08/04 13:06:14;;;;;;;3.30;3.00;;;;;;;28.04;47.56;100385.77;130226;1268;108908;-70
2022/08/04 13:09:23;;;;;;;3.30;3.00;;;;;;;28.03;47.60;100388.64;130045;1268;109568;-71
2022/08/04 13:12:29;;;;;;;3.60;3.00;;;;;;;28.03;47.44;100387.96;130238;1268;108884;-72
2022/08/04 13:15:35;;;;;;;4.20;2.90;;;;;;;28.01;47.39;100385.39;130201;1268;108832;-71
2022/08/04 13:18:47;;;;;;;3.40;2.80;;;;;;;27.99;47.24;100383.18;130168;1268;108973;-71
2022/08/04 13:21:54;;;;;;;3.20;3.00;;;;;;;27.99;46.92;100380.77;130165;1268;109342;-71
2022/08/04 13:25:00;;;;;;;5.30;2.80;;;;;;;27.98;47.12;100381.30;130238;1268;108715;-71
2022/08/04 13:28:09;;;;;;;3.10;2.80;;;;;;;28.00;47.23;100375.60;130134;1268;109533;-71
2022/08/04 13:31:16;;;;;;;3.20;2.90;;;;;;;28.01;46.93;100373.70;130215;1267;108861;-70
2022/08/04 13:34:22;;;;;;;3.60;3.20;;;;;;;28.03;46.95;100370.64;130244;1268;106932;-71
2022/08/04 13:37:34;;;;;;;3.30;3.00;;;;;;;28.04;47.27;100373.16;130196;1268;108865;-71
2022/08/04 13:40:42;;;;;;;3.30;3.10;;;;;;;28.04;47.13;100370.03;130216;1267;108828;-71
2022/08/04 13:43:50;;;;;;;3.90;3.00;;;;;;;28.03;46.56;100368.61;130222;1268;108978;-71
2022/08/04 13:46:59;;;;;;;3.40;3.10;;;;;;;27.97;46.56;100362.33;130214;1268;108929;-70
2022/08/04 13:50:22;;;;;;;3.30;3.00;;;;;;;27.97;46.69;100366.22;130268;1267;108881;-70
2022/08/04 13:53:27;;;;;;;3.00;2.80;;;;;;;28.01;46.59;100361.74;130091;1268;106966;-71
2022/08/04 13:56:38;;;;;;;3.30;2.90;;;;;;;28.00;46.45;100364.64;130164;1268;108838;-71
2022/08/04 13:59:47;;;;;;;3.40;3.20;;;;;;;28.01;46.52;100360.26;130220;1268;108835;-71
2022/08/04 14:03:01;;;;;;;3.30;3.00;;;;;;;28.03;46.45;100355.39;130263;1267;107692;-71
2022/08/04 14:06:13;;;;;;;3.70;3.00;;;;;;;28.03;46.34;100348.73;130274;1267;109691;-71
2022/08/04 14:09:20;;;;;;;4.00;2.80;;;;;;;28.06;46.74;100346.41;130122;1268;108819;-71
2022/08/04 14:12:26;;;;;;;3.00;2.70;;;;;;;28.06;46.22;100348.81;130183;1268;108583;-71
2022/08/04 14:15:34;;;;;;;5.00;2.90;;;;;;;28.07;46.24;100346.41;130206;1268;108832;-71
2022/08/04 14:18:39;;;;;;;4.00;3.10;;;;;;;28.06;46.05;100339.61;130275;1267;108692;-71
2022/08/04 14:21:45;;;;;;;3.30;3.00;;;;;;;28.07;46.08;100343.89;130199;1267;108853;-71
2022/08/04 14:24:58;;;;;;;3.60;3.20;;;;;;;28.06;46.06;100336.38;130186;1267;110412;-71
2022/08/04 14:28:03;;;;;;;3.30;3.00;;;;;;;28.05;46.18;100335.97;130303;1268;108892;-71
2022/08/04 14:31:14;;;;;;;26.00;9.60;;;;;;;28.04;46.29;100334.33;130202;1267;108751;-71
2022/08/04 14:34:30;;;;;;;4.60;3.30;;;;;;;28.05;46.23;100330.43;130190;1268;108888;-71
2022/08/04 14:37:35;;;;;;;3.40;3.10;;;;;;;28.04;46.11;100327.69;130212;1267;108749;-71
2022/08/04 14:40:43;;;;;;;4.20;2.90;;;;;;;28.05;46.28;100325.77;130166;1267;109393;-71
2022/08/04 14:43:52;;;;;;;8.00;4.80;;;;;;;28.02;45.79;100318.68;130227;1267;109035;-71